Greens Farms, CT (06838)

7:43 AM EST on February 23, 2017 (GMT -0500)
Southport Village Area | | Change Station
Active Advisory: Special Statement

Elev 35 ft 41.13 °N, 73.29 °W | Updated 3 seconds ago

Mostly Cloudy
Mostly Cloudy
35.1 °F
Feels Like 35 °F
N
0.0
Wind Variable Wind from SW
Gusts 0.0 mph

Today
High -- | Low -- °F
--% Chance of Precip.
Yesterday
High -- | Low -- °F
Precip. -- in
Pressure 29.91 in
Visibility 0.2 miles
Clouds
Windchill 35 °F
Dew Point 35 °F
Humidity 99%
Rainfall 0.00 in
Snow Depth Not available.
6:36 AM 5:37 PM
Waning Crescent, 10% visible
SPECI KBDR 231238Z 00000KT 1/4SM FG VV003 03/02 A2991 RMK AO2 T00330022
Pressure 29.91 in
Visibility 0.2 miles
Clouds
Windchill 35 °F
Dew Point 35 °F
Humidity 99%
Rainfall 0.00 in
Snow Depth Not available.
6:36 AM 5:37 PM
Waning Crescent, 10% visible
SPECI KBDR 231238Z 00000KT 1/4SM FG VV003 03/02 A2991 RMK AO2 T00330022

Get Your Daily Forecast Email!

Thanks for signing up!

Be on the lookout for a verification email in your inbox.

You'll start receiving the daily forecast at 8 AM.

×

10-Day Weather Forecast

Almanac

Astronomy

Feb. 23, 2017 Rise Set
Actual Time
Civil Twilight
Nautical Twilight
Astronomical Twilight
Moon
Length of Visible Light
Length of Day
Tomorrow will be .
, % of the Moon is Illuminated

Today's Extremes

State Highs State Lows

Community

WunderPhotos

Upload Photos

1,962,540 photos uploaded!

WunderBlog® & News

Nearby

Air Quality

  Air Quality AQ Index Pollutant
Not available.

Snow Depth

Station Depth Elevation

Earthquake Activity

City Distance Mag. Time & Date
Minimum magnitude displayed is 2.5.

Coastal Water Temperatures

Place Temperature

Stations

Nearby Weather Stations

Station Location Temp. Windchill Dew Point Humidity Wind Precip. Elev Updated Type
                   

Watches & Warnings

Special Statement
Issued: 5:57 AM EST Feb. 23, 2017 – National Weather Service

Areas of fog will overspread the region early this morning... which
could be locally dense with visibilities reduce to 1/4 mile or
less during the morning rush.

Motorists should be alert for rapidly reduced visibilities this
morning. If driving... slow down... use your low beam
headlights... and leave plenty of distance ahead of you in case a
sudden stop is needed.

Visibilities should improve by mid-morning.